createdAt,value
2023-04-30T00:00:54.989Z,1000.00
2023-04-30T00:01:54.959Z,1000.00
2023-04-30T00:02:54.996Z,1000.00
2023-04-30T00:03:55.107Z,1000.00
2023-04-30T00:04:55.288Z,1000.00
2023-04-30T00:05:55.531Z,1000.00
2023-04-30T00:06:55.620Z,1000.00
2023-04-30T00:07:55.799Z,1000.00
2023-04-30T00:08:55.973Z,1000.00
2023-04-30T00:09:56.327Z,1000.00
2023-04-30T00:10:56.291Z,1000.00
2023-04-30T00:11:56.412Z,1000.00
2023-04-30T00:12:56.518Z,1000.00
2023-04-30T00:13:56.675Z,1000.00
2023-04-30T00:14:56.794Z,1000.00
2023-04-30T00:15:57.018Z,1000.00
2023-04-30T00:16:57.051Z,1000.00
2023-04-30T00:17:57.310Z,1000.00
2023-04-30T00:18:57.267Z,1000.00
2023-04-30T00:19:57.554Z,1000.00
2023-04-30T00:20:57.690Z,1000.00
2023-04-30T00:21:57.854Z,1000.00
2023-04-30T00:22:58.024Z,1000.00
2023-04-30T00:23:58.222Z,1000.00
2023-04-30T00:24:58.365Z,1000.00
2023-04-30T00:25:58.567Z,1000.00
2023-04-30T00:26:58.680Z,1000.00
2023-04-30T00:27:58.842Z,1000.00
2023-04-30T00:28:58.991Z,1000.00
2023-04-30T00:29:59.157Z,1000.00
2023-04-30T00:30:59.354Z,1000.00
2023-04-30T00:31:59.520Z,1000.00
2023-04-30T00:32:59.672Z,1000.00
2023-04-30T00:33:59.792Z,1000.00
2023-04-30T00:35:00.012Z,1000.00
2023-04-30T00:36:00.133Z,1000.00
2023-04-30T00:37:00.325Z,1000.00
2023-04-30T00:38:00.422Z,1000.00
2023-04-30T00:39:00.603Z,1000.00
2023-04-30T00:40:00.773Z,1000.00
2023-04-30T00:41:00.934Z,1000.00
2023-04-30T00:42:01.083Z,1000.00
2023-04-30T00:43:01.236Z,1000.00
2023-04-30T00:44:01.429Z,1000.00
2023-04-30T00:45:01.561Z,1000.00
2023-04-30T00:46:01.802Z,1000.00
2023-04-30T00:47:01.896Z,1000.00
2023-04-30T00:48:02.141Z,1000.00
2023-04-30T00:49:02.228Z,1000.00
2023-04-30T00:50:02.388Z,1000.00
2023-04-30T00:51:02.547Z,1000.00
2023-04-30T00:52:02.720Z,1000.00
2023-04-30T00:53:02.894Z,1000.00
2023-04-30T00:54:03.062Z,1000.00
2023-04-30T00:55:03.240Z,1000.00
2023-04-30T00:56:03.390Z,1000.00
2023-04-30T00:57:03.575Z,1000.00
2023-04-30T00:58:03.721Z,1000.00
2023-04-30T00:59:03.870Z,1000.00
2023-04-30T01:00:04.048Z,1000.00
2023-04-30T01:01:04.344Z,1000.00
2023-04-30T01:02:04.444Z,1000.00
2023-04-30T01:03:04.616Z,1000.00
2023-04-30T01:04:04.694Z,1000.00
2023-04-30T01:05:04.852Z,1000.00
2023-04-30T01:06:05.056Z,1000.00
2023-04-30T01:07:05.179Z,1000.00
2023-04-30T01:08:05.357Z,1000.00
2023-04-30T01:09:05.569Z,1000.00
2023-04-30T01:10:05.697Z,1000.00
2023-04-30T01:11:05.849Z,1000.00
2023-04-30T01:12:06.027Z,1000.00
2023-04-30T01:13:06.212Z,1000.00
2023-04-30T01:14:06.340Z,1000.00
2023-04-30T01:15:06.507Z,1000.00
2023-04-30T01:16:06.699Z,1000.00
2023-04-30T01:17:06.827Z,1000.00
2023-04-30T01:18:07.039Z,1000.00
2023-04-30T01:19:07.157Z,1000.00
2023-04-30T01:20:07.314Z,1000.00
2023-04-30T01:21:07.495Z,1000.00
2023-04-30T01:22:07.626Z,1000.00
2023-04-30T01:23:07.831Z,1000.00
2023-04-30T01:24:07.989Z,1000.00
2023-04-30T01:25:08.165Z,1000.00
2023-04-30T01:26:08.303Z,1000.00
2023-04-30T01:27:08.482Z,1000.00
2023-04-30T01:28:08.679Z,1000.00
2023-04-30T01:29:08.773Z,1000.00
2023-04-30T01:30:08.950Z,1000.00
2023-04-30T01:31:09.144Z,1000.00
2023-04-30T01:32:09.334Z,1000.00
2023-04-30T01:33:09.557Z,1000.00
2023-04-30T01:34:09.633Z,1000.00
2023-04-30T01:35:09.811Z,1000.00
2023-04-30T01:36:09.998Z,1000.00
2023-04-30T01:37:10.199Z,1000.00
2023-04-30T01:38:10.352Z,1000.00
2023-04-30T01:39:10.538Z,1000.00
2023-04-30T01:40:10.755Z,1000.00
2023-04-30T01:41:10.836Z,1000.00
2023-04-30T01:42:10.984Z,1000.00
2023-04-30T01:43:12.004Z,1000.00
2023-04-30T01:44:11.121Z,1000.00
2023-04-30T01:45:11.090Z,1000.00
2023-04-30T01:46:11.158Z,1000.00
2023-04-30T01:47:11.065Z,1000.00
2023-04-30T01:48:11.000Z,1000.00
2023-04-30T01:49:10.973Z,1000.00
2023-04-30T01:50:10.902Z,1000.00
2023-04-30T01:51:10.819Z,1000.00
2023-04-30T01:52:10.863Z,1000.00
2023-04-30T01:53:10.695Z,1000.00
2023-04-30T01:54:10.621Z,1000.00
2023-04-30T01:55:10.569Z,1000.00
2023-04-30T01:56:10.518Z,1000.00
2023-04-30T01:57:10.471Z,1000.00
2023-04-30T01:58:10.398Z,1000.00
2023-04-30T01:59:10.375Z,1000.00
2023-04-30T02:00:10.359Z,1000.00
2023-04-30T02:01:10.270Z,1000.00
2023-04-30T02:02:10.192Z,1000.00
2023-04-30T02:03:10.220Z,1000.00
2023-04-30T02:04:10.013Z,1000.00
2023-04-30T02:05:10.234Z,1000.00
2023-04-30T02:06:10.385Z,1000.00
2023-04-30T02:07:10.512Z,1000.00
2023-04-30T02:08:10.624Z,1000.00
2023-04-30T02:09:10.795Z,1000.00
2023-04-30T02:10:10.946Z,1000.00
2023-04-30T02:11:11.005Z,1000.00
2023-04-30T02:12:11.160Z,1000.00
2023-04-30T02:13:11.284Z,1000.00
2023-04-30T02:14:11.418Z,1000.00
2023-04-30T02:15:11.566Z,1000.00
2023-04-30T02:16:11.762Z,1000.00
2023-04-30T02:17:11.853Z,1000.00
2023-04-30T02:18:11.992Z,1000.00
2023-04-30T02:19:12.115Z,1000.00
2023-04-30T02:20:12.337Z,1000.00
2023-04-30T02:21:12.395Z,1000.00
2023-04-30T02:22:12.533Z,1000.00
2023-04-30T02:23:12.665Z,1000.00
2023-04-30T02:24:12.838Z,1000.00
2023-04-30T02:25:12.968Z,1000.00
2023-04-30T02:26:13.130Z,1000.00
2023-04-30T02:27:13.252Z,1000.00
2023-04-30T02:28:13.406Z,1000.00
2023-04-30T02:29:13.535Z,1000.00
2023-04-30T02:30:13.679Z,1000.00
2023-04-30T02:31:13.804Z,1000.00
2023-04-30T02:32:13.939Z,1000.00
2023-04-30T02:33:14.125Z,1000.00
2023-04-30T02:34:14.225Z,1000.00
2023-04-30T02:35:14.394Z,1000.00
2023-04-30T02:36:14.531Z,1000.00
2023-04-30T02:37:14.644Z,1000.00
2023-04-30T02:38:14.796Z,1000.00
2023-04-30T02:39:14.941Z,1000.00
2023-04-30T02:40:15.105Z,1000.00
2023-04-30T02:41:15.223Z,1000.00
2023-04-30T02:42:15.372Z,1000.00
2023-04-30T02:43:15.502Z,1000.00
2023-04-30T02:44:15.632Z,1000.00
2023-04-30T02:45:15.759Z,1000.00
2023-04-30T02:46:15.991Z,1000.00
2023-04-30T02:47:16.043Z,1000.00
2023-04-30T02:48:16.233Z,1000.00
2023-04-30T02:49:16.371Z,1000.00
2023-04-30T02:50:16.507Z,1000.00
2023-04-30T02:51:16.631Z,1000.00
2023-04-30T02:52:16.791Z,1000.00
2023-04-30T02:53:16.936Z,1000.00
2023-04-30T02:54:17.107Z,1000.00
2023-04-30T02:55:17.282Z,1000.00
2023-04-30T02:56:17.386Z,1000.00
2023-04-30T02:57:17.543Z,1000.00
2023-04-30T02:58:17.690Z,1000.00
2023-04-30T02:59:17.835Z,1000.00
2023-04-30T03:00:17.962Z,1000.00
2023-04-30T03:01:18.103Z,1000.00
2023-04-30T03:02:18.265Z,1000.00
2023-04-30T03:03:18.392Z,1000.00
2023-04-30T03:04:18.488Z,1000.00
2023-04-30T03:05:18.616Z,1000.00
2023-04-30T03:06:18.827Z,1000.00
2023-04-30T03:07:18.876Z,1000.00
2023-04-30T03:08:18.990Z,1000.00
2023-04-30T03:09:19.122Z,1000.00
2023-04-30T03:10:19.383Z,1000.00
2023-04-30T03:11:19.552Z,1000.00
2023-04-30T03:12:19.709Z,1000.00
2023-04-30T03:13:19.877Z,1000.00
2023-04-30T03:14:20.063Z,1000.00
2023-04-30T03:15:20.204Z,1000.00
2023-04-30T03:16:20.360Z,1000.00
2023-04-30T03:17:20.456Z,1000.00
2023-04-30T03:18:20.559Z,1000.00
2023-04-30T03:19:20.756Z,1000.00
2023-04-30T03:20:20.968Z,1000.00
2023-04-30T03:21:21.136Z,1000.00
2023-04-30T03:22:21.276Z,1000.00
2023-04-30T03:23:21.377Z,1000.00
2023-04-30T03:24:21.552Z,1000.00
2023-04-30T03:25:21.753Z,1000.00
2023-04-30T03:26:21.808Z,1000.00
2023-04-30T03:27:21.935Z,1000.00
2023-04-30T03:28:22.078Z,1000.00
2023-04-30T03:29:22.255Z,1000.00
2023-04-30T03:30:22.411Z,1000.00
2023-04-30T03:31:22.688Z,1000.00
2023-04-30T03:32:22.754Z,1000.00
2023-04-30T03:33:22.940Z,1000.00
2023-04-30T03:34:22.991Z,1000.00
2023-04-30T03:35:23.160Z,1000.00
2023-04-30T03:36:23.350Z,1000.00
2023-04-30T03:37:23.508Z,1000.00
2023-04-30T03:38:23.691Z,1000.00
2023-04-30T03:39:23.911Z,1000.00
2023-04-30T03:40:24.037Z,1000.00
2023-04-30T03:41:24.253Z,1000.00
2023-04-30T03:42:24.398Z,1000.00
2023-04-30T03:43:24.560Z,1000.00
2023-04-30T03:44:24.762Z,1000.00
2023-04-30T03:45:24.917Z,1000.00
2023-04-30T03:46:25.149Z,1000.00
2023-04-30T03:47:25.260Z,1000.00
2023-04-30T03:48:25.417Z,1000.00
2023-04-30T03:49:25.615Z,1000.00
2023-04-30T03:50:25.765Z,1000.00
2023-04-30T03:51:25.934Z,1000.00
2023-04-30T03:52:26.095Z,1000.00
2023-04-30T03:53:26.268Z,1000.00
2023-04-30T03:54:26.401Z,1000.00
2023-04-30T03:55:26.492Z,1000.00
2023-04-30T03:56:26.759Z,1000.00
2023-04-30T03:57:26.909Z,1000.00
2023-04-30T03:58:27.086Z,1000.00
2023-04-30T03:59:27.263Z,1000.00
2023-04-30T04:00:27.466Z,1000.00
2023-04-30T04:01:27.649Z,1000.00
2023-04-30T04:02:28.113Z,1000.00
2023-04-30T04:03:27.962Z,1000.00
2023-04-30T04:04:28.225Z,1000.00
2023-04-30T04:05:28.253Z,1000.00
2023-04-30T04:06:28.529Z,1000.00
2023-04-30T04:07:28.652Z,1000.00
2023-04-30T04:08:28.803Z,1000.00
2023-04-30T04:09:28.947Z,1000.00
2023-04-30T04:10:29.068Z,1000.00
2023-04-30T04:11:29.241Z,1000.00
2023-04-30T04:12:29.414Z,1000.00
2023-04-30T04:13:29.547Z,1000.00
2023-04-30T04:14:29.718Z,1000.00
2023-04-30T04:15:29.854Z,1000.00
2023-04-30T04:16:30.113Z,1000.00
2023-04-30T04:17:30.262Z,1000.00
2023-04-30T04:18:30.399Z,1000.00
2023-04-30T04:19:30.533Z,1000.00
2023-04-30T04:20:30.652Z,1000.00
2023-04-30T04:21:30.799Z,1000.00
2023-04-30T04:22:30.977Z,1000.00
2023-04-30T04:23:31.110Z,1000.00
2023-04-30T04:24:31.273Z,1000.00
2023-04-30T04:25:31.451Z,1000.00
2023-04-30T04:26:31.628Z,1000.00
2023-04-30T04:27:31.833Z,1000.00
2023-04-30T04:28:32.013Z,1000.00
2023-04-30T04:29:32.202Z,1000.00
2023-04-30T04:30:32.373Z,1000.00
2023-04-30T04:31:32.526Z,1000.00
2023-04-30T04:32:32.757Z,1000.00
2023-04-30T04:33:32.851Z,1000.00
2023-04-30T04:34:33.037Z,1000.00
2023-04-30T04:35:33.208Z,1000.00
2023-04-30T04:36:33.355Z,1000.00
2023-04-30T04:37:33.502Z,1000.00
2023-04-30T04:38:33.658Z,1000.00
2023-04-30T04:39:33.802Z,1000.00
2023-04-30T04:40:33.965Z,1000.00
2023-04-30T04:41:34.138Z,1000.00
2023-04-30T04:42:34.252Z,1000.00
2023-04-30T04:43:34.409Z,1000.00
2023-04-30T04:44:34.574Z,1000.00
2023-04-30T04:45:34.737Z,1000.00
2023-04-30T04:46:34.986Z,1000.00
2023-04-30T04:47:35.172Z,1000.00
2023-04-30T04:48:35.261Z,1000.00
2023-04-30T04:49:35.432Z,1000.00
2023-04-30T04:50:35.606Z,1000.00
2023-04-30T04:51:35.763Z,1000.00
2023-04-30T04:52:35.941Z,1000.00
2023-04-30T04:53:36.061Z,1000.00
2023-04-30T04:54:36.212Z,1000.00
2023-04-30T04:55:36.392Z,1000.00
2023-04-30T04:56:36.531Z,1000.00
2023-04-30T04:57:36.768Z,1000.00
2023-04-30T04:58:36.879Z,1000.00
2023-04-30T04:59:37.042Z,1000.00
2023-04-30T05:00:37.221Z,1000.00
2023-04-30T05:01:37.402Z,1000.00
2023-04-30T05:02:37.671Z,1000.00
2023-04-30T05:03:37.826Z,1000.00
2023-04-30T05:04:37.900Z,1000.00
2023-04-30T05:05:38.065Z,1000.00
2023-04-30T05:06:38.335Z,1000.00
2023-04-30T05:07:38.381Z,1000.00
2023-04-30T05:08:38.607Z,1000.00
2023-04-30T05:09:38.659Z,1000.00
2023-04-30T05:10:38.802Z,1000.00
2023-04-30T05:11:39.139Z,1000.00
2023-04-30T05:12:39.168Z,1000.00
2023-04-30T05:13:39.462Z,1000.00
2023-04-30T05:14:39.533Z,1000.00
2023-04-30T05:15:39.740Z,1000.00
2023-04-30T05:16:39.988Z,1000.00
2023-04-30T05:17:40.061Z,1000.00
2023-04-30T05:18:40.206Z,1000.00
2023-04-30T05:19:40.393Z,1000.00
2023-04-30T05:20:40.536Z,1000.00
2023-04-30T05:21:40.720Z,1000.00
2023-04-30T05:22:40.874Z,1000.00
2023-04-30T05:23:41.044Z,1000.00
2023-04-30T05:24:41.237Z,1000.00
2023-04-30T05:25:41.376Z,1000.00
2023-04-30T05:26:41.562Z,1000.00
2023-04-30T05:27:41.728Z,1000.00
2023-04-30T05:28:41.906Z,1000.00
2023-04-30T05:29:42.080Z,1000.00
2023-04-30T05:30:42.245Z,1000.00
2023-04-30T05:31:42.462Z,1000.00
2023-04-30T05:32:42.539Z,1000.00
2023-04-30T05:33:42.671Z,1000.00
2023-04-30T05:34:42.930Z,1000.00
2023-04-30T05:35:43.085Z,1000.00
2023-04-30T05:36:44.371Z,1000.00
2023-04-30T05:37:43.205Z,1000.00
2023-04-30T05:38:43.145Z,1000.00
2023-04-30T05:39:43.084Z,1000.00
2023-04-30T05:40:43.026Z,1000.00
2023-04-30T05:41:43.121Z,1000.00
2023-04-30T05:42:43.283Z,1000.00
2023-04-30T05:43:43.530Z,1000.00
2023-04-30T05:44:43.654Z,1000.00
2023-04-30T05:45:43.868Z,1000.00
2023-04-30T05:46:44.015Z,1000.00
2023-04-30T05:47:44.375Z,1000.00
2023-04-30T05:48:44.440Z,1000.00
2023-04-30T05:49:44.555Z,1000.00
2023-04-30T05:50:44.720Z,1000.00
2023-04-30T05:51:44.880Z,1000.00
2023-04-30T05:52:45.054Z,1000.00
2023-04-30T05:53:45.196Z,1000.00
2023-04-30T05:54:46.092Z,1000.00
2023-04-30T05:55:45.284Z,1000.00
2023-04-30T05:56:45.261Z,1000.00
2023-04-30T05:57:45.259Z,1000.00
2023-04-30T05:58:45.226Z,1000.00
2023-04-30T05:59:45.219Z,1000.00
2023-04-30T06:00:45.179Z,1000.00
2023-04-30T06:01:45.227Z,1000.00
2023-04-30T06:02:45.186Z,1000.00
2023-04-30T06:03:45.128Z,1000.00
2023-04-30T06:04:45.140Z,1000.00
2023-04-30T06:05:45.176Z,1000.00
2023-04-30T06:06:45.170Z,1000.00
2023-04-30T06:07:45.050Z,1000.00
2023-04-30T06:08:45.054Z,1000.00
2023-04-30T06:09:45.036Z,1000.00
2023-04-30T06:10:45.005Z,1000.00
2023-04-30T06:11:44.997Z,1000.00
2023-04-30T06:12:44.998Z,1000.00
2023-04-30T06:13:44.954Z,1000.00
2023-04-30T06:14:44.985Z,1000.00
2023-04-30T06:15:44.928Z,1000.00
2023-04-30T06:16:44.918Z,1000.00
2023-04-30T06:17:44.932Z,1000.00
2023-04-30T06:18:44.864Z,1000.00
2023-04-30T06:19:44.806Z,1000.00
2023-04-30T06:20:44.861Z,1000.00
2023-04-30T06:21:45.055Z,1000.00
2023-04-30T06:22:45.248Z,1000.00
2023-04-30T06:23:45.405Z,1000.00
2023-04-30T06:24:45.586Z,1000.00
2023-04-30T06:25:45.718Z,1000.00
2023-04-30T06:26:45.870Z,1000.00
2023-04-30T06:27:46.147Z,1000.00
2023-04-30T06:28:46.316Z,1000.00
2023-04-30T06:29:47.106Z,1000.00
2023-04-30T06:30:46.477Z,1000.00
2023-04-30T06:31:46.573Z,1000.00
2023-04-30T06:32:46.507Z,1000.00
2023-04-30T06:33:46.409Z,1000.00
2023-04-30T06:34:46.387Z,1000.00
2023-04-30T06:35:46.367Z,1000.00
2023-04-30T06:36:46.343Z,1000.00
2023-04-30T06:37:46.321Z,1000.00
2023-04-30T06:38:46.268Z,1000.00
2023-04-30T06:39:46.266Z,1000.00
2023-04-30T06:40:46.239Z,1000.00
2023-04-30T06:41:46.200Z,1000.00
2023-04-30T06:42:47.552Z,1000.00
2023-04-30T06:43:46.105Z,1000.00
2023-04-30T06:44:46.068Z,1000.00
2023-04-30T06:45:46.078Z,1000.00
2023-04-30T06:46:46.182Z,1000.00
2023-04-30T06:47:46.014Z,1000.00
2023-04-30T06:48:45.977Z,1000.00
2023-04-30T06:49:46.624Z,1000.00
2023-04-30T06:50:45.924Z,1000.00
2023-04-30T06:51:45.918Z,1000.00
2023-04-30T06:52:45.884Z,1000.00
2023-04-30T06:53:45.885Z,1000.00
2023-04-30T06:54:46.139Z,1000.00
2023-04-30T06:55:46.339Z,1000.00
2023-04-30T06:56:46.495Z,1000.00
2023-04-30T06:57:46.633Z,1000.00
2023-04-30T06:58:46.897Z,1000.00
2023-04-30T06:59:47.018Z,1000.00
2023-04-30T07:00:47.254Z,1000.00
2023-04-30T07:01:47.481Z,1000.00
2023-04-30T07:02:47.602Z,1000.00
2023-04-30T07:03:47.892Z,1000.00
2023-04-30T07:04:47.963Z,1000.00
2023-04-30T07:05:48.138Z,1000.00
2023-04-30T07:06:48.307Z,1000.00
2023-04-30T07:07:48.455Z,1000.00
2023-04-30T07:08:48.614Z,1000.00
2023-04-30T07:09:51.017Z,1000.00
2023-04-30T07:10:48.706Z,1000.00
2023-04-30T07:11:48.607Z,1000.00
2023-04-30T07:12:48.495Z,1000.00
2023-04-30T07:13:48.406Z,1000.00
2023-04-30T07:14:48.327Z,1000.00
2023-04-30T07:15:48.227Z,1000.00
2023-04-30T07:16:48.113Z,1000.00
2023-04-30T07:17:48.069Z,1000.00
2023-04-30T07:18:47.922Z,1000.00
2023-04-30T07:19:47.838Z,1000.00
2023-04-30T07:20:47.743Z,1000.00
2023-04-30T07:21:47.655Z,1000.00
2023-04-30T07:22:47.582Z,1000.00
2023-04-30T07:23:47.462Z,1000.00
2023-04-30T07:24:47.453Z,1000.00
2023-04-30T07:25:47.302Z,1000.00
2023-04-30T07:26:47.211Z,1000.00
2023-04-30T07:27:47.157Z,1000.00
2023-04-30T07:28:47.135Z,1000.00
2023-04-30T07:29:46.956Z,1000.00
2023-04-30T07:30:46.881Z,1000.00
2023-04-30T07:31:46.847Z,1000.00
2023-04-30T07:32:46.717Z,836.22
2023-04-30T07:33:46.612Z,768.46
2023-04-30T07:34:46.521Z,854.76
2023-04-30T07:35:46.453Z,858.79
2023-04-30T07:36:46.308Z,749.42
2023-04-30T07:37:46.229Z,760.84
2023-04-30T07:38:46.135Z,740.74
2023-04-30T07:39:46.024Z,727.47
2023-04-30T07:40:45.945Z,736.68
2023-04-30T07:41:45.879Z,771.84
2023-04-30T07:42:45.755Z,811.80
2023-04-30T07:43:45.695Z,864.27
2023-04-30T07:44:45.609Z,831.79
2023-04-30T07:45:45.552Z,790.46
2023-04-30T07:46:45.417Z,658.16
2023-04-30T07:47:45.398Z,555.40
2023-04-30T07:48:45.305Z,539.52
2023-04-30T07:49:45.123Z,541.87
2023-04-30T07:50:45.049Z,563.88
2023-04-30T07:51:45.026Z,614.78
2023-04-30T07:52:44.942Z,558.98
2023-04-30T07:53:44.891Z,537.78
2023-04-30T07:54:44.834Z,530.31
2023-04-30T07:55:44.761Z,498.47
2023-04-30T07:56:44.732Z,487.47
2023-04-30T07:57:44.711Z,522.50
2023-04-30T07:58:44.788Z,531.97
2023-04-30T07:59:44.637Z,518.11
2023-04-30T08:00:44.694Z,445.59
2023-04-30T08:01:44.677Z,349.66
2023-04-30T08:02:44.873Z,301.32
2023-04-30T08:03:44.745Z,293.23
2023-04-30T08:04:44.540Z,295.82
2023-04-30T08:05:44.506Z,286.06
2023-04-30T08:06:44.595Z,292.48
2023-04-30T08:07:44.478Z,290.48
2023-04-30T08:08:44.429Z,255.29
2023-04-30T08:09:44.404Z,265.02
2023-04-30T08:10:44.371Z,252.27
2023-04-30T08:11:44.334Z,248.78
2023-04-30T08:12:44.372Z,251.67
2023-04-30T08:13:44.513Z,270.34
2023-04-30T08:14:44.628Z,307.29
2023-04-30T08:15:44.720Z,260.31
2023-04-30T08:16:44.901Z,256.04
2023-04-30T08:17:45.115Z,244.37
2023-04-30T08:18:45.188Z,219.24
2023-04-30T08:19:45.331Z,213.25
2023-04-30T08:20:45.496Z,223.93
2023-04-30T08:21:45.597Z,267.38
2023-04-30T08:22:45.731Z,312.40
2023-04-30T08:23:45.829Z,292.78
2023-04-30T08:24:45.957Z,258.86
2023-04-30T08:25:46.127Z,249.61
2023-04-30T08:26:46.194Z,230.22
2023-04-30T08:27:46.384Z,228.70
2023-04-30T08:28:46.587Z,254.03
2023-04-30T08:29:46.722Z,238.36
2023-04-30T08:30:46.894Z,238.90
2023-04-30T08:31:47.000Z,222.24
2023-04-30T08:32:47.210Z,196.20
2023-04-30T08:33:47.333Z,195.62
2023-04-30T08:34:47.484Z,183.82
2023-04-30T08:35:47.602Z,167.67
2023-04-30T08:36:47.773Z,150.87
2023-04-30T08:37:47.801Z,134.26
2023-04-30T08:38:48.038Z,114.72
2023-04-30T08:39:48.057Z,103.65
2023-04-30T08:40:51.637Z,103.90
2023-04-30T08:41:47.819Z,104.22
2023-04-30T08:42:47.828Z,106.77
2023-04-30T08:43:47.654Z,112.12
2023-04-30T08:44:47.512Z,116.78
2023-04-30T08:45:47.463Z,104.68
2023-04-30T08:46:47.284Z,100.24
2023-04-30T08:47:47.239Z,79.75
2023-04-30T08:48:47.083Z,62.29
2023-04-30T08:49:46.989Z,56.23
2023-04-30T08:50:46.899Z,61.61
2023-04-30T08:51:46.776Z,60.45
2023-04-30T08:52:46.687Z,57.51
2023-04-30T08:53:46.587Z,54.94
2023-04-30T08:54:46.646Z,55.52
2023-04-30T08:55:46.436Z,62.50
2023-04-30T08:56:46.305Z,55.49
2023-04-30T08:57:46.264Z,52.43
2023-04-30T08:58:46.432Z,55.91
2023-04-30T08:59:46.546Z,55.08
2023-04-30T09:00:46.674Z,56.14
2023-04-30T09:01:46.841Z,53.34
2023-04-30T09:02:46.955Z,57.18
2023-04-30T09:03:47.054Z,58.06
2023-04-30T09:04:47.126Z,55.68
2023-04-30T09:05:47.307Z,49.46
2023-04-30T09:06:47.528Z,50.80
2023-04-30T09:08:47.417Z,52.23
2023-04-30T09:09:47.228Z,51.79
2023-04-30T09:10:47.127Z,48.92
2023-04-30T09:11:47.030Z,47.20
2023-04-30T09:12:46.930Z,43.34
2023-04-30T09:13:46.835Z,37.95
2023-04-30T09:14:46.720Z,38.08
2023-04-30T09:15:46.676Z,37.68
2023-04-30T09:16:46.505Z,35.80
2023-04-30T09:17:48.314Z,32.34
2023-04-30T09:18:46.271Z,30.26
2023-04-30T09:19:46.167Z,26.18
2023-04-30T09:20:46.097Z,21.41
2023-04-30T09:21:45.953Z,16.46
2023-04-30T09:22:45.846Z,15.71
2023-04-30T09:23:45.744Z,18.63
2023-04-30T09:24:45.624Z,19.71
2023-04-30T09:25:45.555Z,23.50
2023-04-30T09:26:45.445Z,22.67
2023-04-30T09:27:45.336Z,22.43
2023-04-30T09:28:45.236Z,24.86
2023-04-30T09:29:45.149Z,27.74
2023-04-30T09:30:45.064Z,28.80
2023-04-30T09:31:45.100Z,25.44
2023-04-30T09:32:45.021Z,26.04
2023-04-30T09:33:44.837Z,23.77
2023-04-30T09:34:44.739Z,23.29
2023-04-30T09:35:44.625Z,23.52
2023-04-30T09:36:44.504Z,20.45
2023-04-30T09:37:44.408Z,19.62
2023-04-30T09:38:44.351Z,21.72
2023-04-30T09:39:44.173Z,16.97
2023-04-30T09:40:44.078Z,16.31
2023-04-30T09:41:43.999Z,13.89
2023-04-30T09:42:43.924Z,13.89
2023-04-30T09:43:43.731Z,14.50
2023-04-30T09:44:43.671Z,13.47
2023-04-30T09:45:43.538Z,14.12
2023-04-30T09:46:43.482Z,14.18
2023-04-30T09:47:43.335Z,14.30
2023-04-30T09:48:43.244Z,15.55
2023-04-30T09:49:43.195Z,15.50
2023-04-30T09:50:43.575Z,16.89
2023-04-30T09:51:43.082Z,16.63
2023-04-30T09:52:42.994Z,18.61
2023-04-30T09:53:42.896Z,19.59
2023-04-30T09:54:43.643Z,20.21
2023-04-30T09:55:42.720Z,14.58
2023-04-30T09:56:42.656Z,12.66
2023-04-30T09:57:42.576Z,11.93
2023-04-30T09:58:42.525Z,10.71
2023-04-30T09:59:42.422Z,10.39
2023-04-30T10:00:42.386Z,10.64
2023-04-30T10:01:42.350Z,8.99
2023-04-30T10:02:42.207Z,7.44
2023-04-30T10:03:42.087Z,7.51
2023-04-30T10:04:41.983Z,6.46
2023-04-30T10:05:41.877Z,5.76
2023-04-30T10:06:41.803Z,4.94
2023-04-30T10:07:41.708Z,5.10
2023-04-30T10:08:41.698Z,5.40
2023-04-30T10:09:41.535Z,5.35
2023-04-30T10:10:41.485Z,4.78
2023-04-30T10:11:41.364Z,4.87
2023-04-30T10:12:41.295Z,5.44
2023-04-30T10:13:41.193Z,5.50
2023-04-30T10:14:41.223Z,5.47
2023-04-30T10:15:41.201Z,5.46
2023-04-30T10:16:41.078Z,5.29
2023-04-30T10:17:41.169Z,4.75
2023-04-30T10:18:40.991Z,4.38
2023-04-30T10:19:40.800Z,3.82
2023-04-30T10:20:40.741Z,2.75
2023-04-30T10:21:40.663Z,2.56
2023-04-30T10:22:40.564Z,2.42
2023-04-30T10:23:40.444Z,2.42
2023-04-30T10:24:40.356Z,2.06
2023-04-30T10:25:40.522Z,2.31
2023-04-30T10:26:40.561Z,2.09
2023-04-30T10:27:40.720Z,1.80
2023-04-30T10:28:40.827Z,2.18
2023-04-30T10:29:40.961Z,2.35
2023-04-30T10:30:41.253Z,2.35
2023-04-30T10:31:41.189Z,2.48
2023-04-30T10:32:41.349Z,2.20
2023-04-30T10:33:41.446Z,2.31
2023-04-30T10:34:41.578Z,2.23
2023-04-30T10:35:41.724Z,2.50
2023-04-30T10:36:41.940Z,2.59
2023-04-30T10:37:41.941Z,2.45
2023-04-30T10:38:42.125Z,2.46
2023-04-30T10:39:42.256Z,2.57
2023-04-30T10:40:42.426Z,2.15
2023-04-30T10:41:42.553Z,1.81
2023-04-30T10:42:42.730Z,1.94
2023-04-30T10:43:42.939Z,1.62
2023-04-30T10:44:43.061Z,1.22
2023-04-30T10:45:43.222Z,1.25
2023-04-30T10:46:43.458Z,1.39
2023-04-30T10:47:43.402Z,1.35
2023-04-30T10:48:43.492Z,1.08
2023-04-30T10:49:43.639Z,1.19
2023-04-30T10:50:46.099Z,1.39
2023-04-30T10:51:43.845Z,1.40
2023-04-30T10:52:43.774Z,1.14
2023-04-30T10:53:43.684Z,0.96
2023-04-30T10:54:43.631Z,0.88
2023-04-30T10:55:43.551Z,0.94
2023-04-30T10:56:43.461Z,0.92
2023-04-30T10:57:43.448Z,0.80
2023-04-30T10:58:43.352Z,0.86
2023-04-30T10:59:43.297Z,0.95
2023-04-30T11:00:44.879Z,0.87
2023-04-30T11:01:43.207Z,0.81
2023-04-30T11:02:43.137Z,0.81
2023-04-30T11:03:43.008Z,0.97
2023-04-30T11:04:42.919Z,1.07
2023-04-30T11:05:42.768Z,0.97
2023-04-30T11:06:45.004Z,0.89
2023-04-30T11:07:42.639Z,0.83
2023-04-30T11:08:42.556Z,0.84
2023-04-30T11:09:42.460Z,1.01
2023-04-30T11:10:42.339Z,1.07
2023-04-30T11:11:42.360Z,1.21
2023-04-30T11:12:42.497Z,1.12
2023-04-30T11:13:42.596Z,0.82
2023-04-30T11:14:42.687Z,0.60
2023-04-30T11:15:42.856Z,0.50
2023-04-30T11:16:43.013Z,0.45
2023-04-30T11:17:43.152Z,0.47
2023-04-30T11:18:43.206Z,0.50
2023-04-30T11:19:43.370Z,0.50
2023-04-30T11:20:43.537Z,0.51
2023-04-30T11:21:43.667Z,0.61
2023-04-30T11:22:43.874Z,0.54
2023-04-30T11:23:44.011Z,0.55
2023-04-30T11:24:44.110Z,0.61
2023-04-30T11:25:44.274Z,0.65
2023-04-30T11:26:44.416Z,0.66
2023-04-30T11:27:44.567Z,0.62
2023-04-30T11:28:44.755Z,0.52
2023-04-30T11:29:44.968Z,0.51
2023-04-30T11:30:45.109Z,0.55
2023-04-30T11:31:45.235Z,0.54
2023-04-30T11:32:45.389Z,0.60
2023-04-30T11:33:45.527Z,0.65
2023-04-30T11:34:45.661Z,0.75
2023-04-30T11:35:45.827Z,0.65
2023-04-30T11:36:46.886Z,0.65
2023-04-30T11:37:45.895Z,0.63
2023-04-30T11:38:45.770Z,0.72
2023-04-30T11:39:45.743Z,0.59
2023-04-30T11:40:45.605Z,0.56
2023-04-30T11:41:45.581Z,0.59
2023-04-30T11:42:46.470Z,0.57
2023-04-30T11:43:45.402Z,0.58
2023-04-30T11:44:45.331Z,0.61
2023-04-30T11:45:45.267Z,0.61
2023-04-30T11:46:45.140Z,0.52
2023-04-30T11:47:45.042Z,0.52
2023-04-30T11:48:44.903Z,0.47
2023-04-30T11:49:44.827Z,0.45
2023-04-30T11:50:44.754Z,0.52
2023-04-30T11:51:44.573Z,0.58
2023-04-30T11:52:44.463Z,0.63
2023-04-30T11:53:44.340Z,0.65
2023-04-30T11:54:44.233Z,0.60
2023-04-30T11:55:44.074Z,0.58
2023-04-30T11:56:43.988Z,0.60
2023-04-30T11:57:43.847Z,0.56
2023-04-30T11:58:43.729Z,0.61
2023-04-30T11:59:43.650Z,0.74
2023-04-30T12:00:43.509Z,0.81
2023-04-30T12:01:43.402Z,0.82
2023-04-30T12:02:43.576Z,0.67
2023-04-30T12:03:43.273Z,0.62
2023-04-30T12:04:43.101Z,0.58
2023-04-30T12:05:43.190Z,0.58
2023-04-30T12:06:43.407Z,0.57
2023-04-30T12:07:43.431Z,0.61
2023-04-30T12:08:43.514Z,0.58
2023-04-30T12:09:43.628Z,0.64
2023-04-30T12:10:43.869Z,0.61
2023-04-30T12:11:43.901Z,0.59
2023-04-30T12:12:44.054Z,0.52
2023-04-30T12:13:44.275Z,0.49
2023-04-30T12:14:44.378Z,0.50
2023-04-30T12:15:44.470Z,0.56
2023-04-30T12:16:44.615Z,0.58
2023-04-30T12:17:44.733Z,0.65
2023-04-30T12:18:44.797Z,0.68
2023-04-30T12:19:44.905Z,0.83
2023-04-30T12:20:45.066Z,0.74
2023-04-30T12:21:45.167Z,0.65
2023-04-30T12:22:45.263Z,0.63
2023-04-30T12:23:45.476Z,0.80
2023-04-30T12:24:45.545Z,0.66
2023-04-30T12:25:45.658Z,0.50
2023-04-30T12:26:45.899Z,0.51
2023-04-30T12:27:45.975Z,0.47